Time;durP1;ratioP1;P1;durP2;ratioP2;P2;SDS_P1;SDS_P2;PMS_P1;PMS_P2;Temp;Humidity;BMP_temperature;BMP_pressure;BME280_temperature;BME280_humidity;BME280_pressure;Samples;Min_cycle;Max_cycle;Signal;HPM_P1;HPM_P2
2023/08/19 00:01:22;;;;;;;;;;;21.20;71.20;;;20.48;80.14;96054.91;4952988;28;19961;-65
2023/08/19 00:03:48;;;;;;;;;;;21.20;71.30;;;20.46;80.16;96057.03;4952511;28;19941;-65
2023/08/19 00:06:36;;;;;;;;;;;21.10;71.40;;;20.43;80.79;96055.69;4953665;28;19925;-65
2023/08/19 00:09:04;;;;;;;;;;;21.10;71.70;;;20.42;81.84;96058.59;4985031;28;19920;-64
2023/08/19 00:11:31;;;;;;;;;;;21.10;71.90;;;20.41;80.83;96055.13;4956941;28;19916;-64
2023/08/19 00:13:57;;;;;;;;;;;21.10;71.80;;;20.42;81.05;96043.38;4951745;28;19921;-64
2023/08/19 00:16:22;;;;;;;;;;;21.10;71.80;;;20.41;80.73;96048.97;4969179;28;19914;-64
2023/08/19 00:18:48;;;;;;;;;;;21.10;71.80;;;20.39;81.41;96051.06;4969341;28;20429;-65
2023/08/19 00:21:14;;;;;;;;;;;21.10;71.90;;;20.36;80.80;96068.38;4951065;28;19918;-65
2023/08/19 00:23:40;;;;;;;;;;;21.10;72.20;;;20.35;81.70;96058.75;4966805;28;19918;-65
2023/08/19 00:26:05;;;;;;;;;;;21.00;72.30;;;20.32;81.82;96061.94;4955583;28;19910;-64
2023/08/19 00:28:31;;;;;;;;;;;21.00;72.40;;;20.29;82.31;96061.63;4952024;28;19920;-64
2023/08/19 00:30:57;;;;;;;;;;;20.90;72.60;;;20.22;82.23;96056.50;4968516;28;20067;-65
2023/08/19 00:33:25;;;;;;;;;;;20.90;72.80;;;20.15;82.19;96062.03;4969244;28;19993;-64
2023/08/19 00:35:51;;;;;;;;;;;20.80;72.80;;;20.14;82.90;96052.41;4953627;28;20737;-65
2023/08/19 00:38:17;;;;;;;;;;;20.80;72.90;;;20.10;83.39;96064.63;4939469;28;19913;-65
2023/08/19 00:40:43;;;;;;;;;;;20.80;73.20;;;19.98;83.79;96052.47;4939617;28;19910;-65
2023/08/19 00:43:08;;;;;;;;;;;20.60;73.60;;;19.88;84.84;96050.47;4935991;28;19914;-64
2023/08/19 00:45:37;;;;;;;;;;;20.60;73.90;;;19.82;84.51;96046.13;4972940;28;19939;-66
2023/08/19 00:48:03;;;;;;;;;;;20.60;73.90;;;19.77;85.73;96049.56;4950777;28;19921;-66
2023/08/19 00:50:29;;;;;;;;;;;20.60;73.80;;;19.72;85.50;96046.81;4957735;28;19914;-67
2023/08/19 00:52:55;;;;;;;;;;;20.50;73.90;;;19.73;85.98;96050.31;4951847;28;20304;-67
2023/08/19 00:55:21;;;;;;;;;;;20.50;74.20;;;19.71;85.53;96052.41;4972639;28;19924;-64
2023/08/19 00:57:46;;;;;;;;;;;20.50;74.30;;;19.70;85.73;96053.47;4951696;28;20008;-67
2023/08/19 01:00:12;;;;;;;;;;;20.50;74.10;;;19.70;85.99;96058.81;4936370;28;19917;-66
2023/08/19 01:02:41;;;;;;;;;;;20.50;74.10;;;19.69;85.72;96058.00;4951227;28;19910;-65
2023/08/19 01:05:08;;;;;;;;;;;20.50;73.90;;;19.68;84.67;96051.00;4967447;28;19992;-64
2023/08/19 01:07:43;;;;;;;;;;;20.50;73.80;;;19.67;85.62;96052.06;4935713;28;19997;-65
2023/08/19 01:10:21;;;;;;;;;;;20.40;74.10;;;19.67;85.20;96051.25;4968855;28;19924;-67
2023/08/19 01:12:51;;;;;;;;;;;20.40;74.20;;;19.62;85.37;96046.69;4951562;28;19935;-67
2023/08/19 01:15:19;;;;;;;;;;;20.30;74.20;;;19.55;86.22;96040.72;4947483;28;19921;-66
2023/08/19 01:17:46;;;;;;;;;;;20.30;74.70;;;19.42;87.66;96041.84;4966219;28;19921;-67
2023/08/19 01:20:13;;;;;;;;;;;20.20;75.20;;;19.36;88.50;96036.69;4948481;28;20286;-68
2023/08/19 01:22:51;;;;;;;;;;;20.10;75.40;;;19.34;88.90;96034.25;4948103;28;19914;-65
2023/08/19 01:25:16;;;;;;;;;;;20.10;75.60;;;19.32;89.35;96023.03;4952360;28;19921;-64
2023/08/19 01:27:42;;;;;;;;;;;20.10;75.60;;;19.26;89.02;96022.16;4951198;28;20301;-64
2023/08/19 01:30:08;;;;;;;;;;;20.10;75.40;;;19.23;88.93;96019.16;4933516;28;20266;-64
2023/08/19 01:32:34;;;;;;;;;;;20.10;75.40;;;19.26;87.90;96018.69;4934871;28;20359;-66
2023/08/19 01:35:00;;;;;;;;;;;20.10;75.20;;;19.26;87.18;96021.34;4964937;28;19921;-67
2023/08/19 01:38:00;;;;;;;;;;;20.10;74.80;;;19.25;86.20;96009.09;4951344;28;19921;-67
2023/08/19 01:40:25;;;;;;;;;;;20.10;74.30;;;19.21;87.35;96019.41;4962874;28;19914;-67
2023/08/19 01:42:51;;;;;;;;;;;20.00;75.00;;;19.21;88.22;96026.59;4933701;28;20575;-66
2023/08/19 01:45:17;;;;;;;;;;;20.00;75.50;;;19.23;89.68;96024.50;4958619;28;19913;-67
2023/08/19 01:47:42;;;;;;;;;;;20.10;75.60;;;19.21;89.73;96029.25;4966071;28;19914;-67
2023/08/19 01:50:08;;;;;;;;;;;20.10;75.30;;;19.18;88.94;96030.56;4966223;28;20305;-66
2023/08/19 01:52:34;;;;;;;;;;;20.00;75.40;;;19.10;89.38;96027.50;4971264;28;19914;-64
2023/08/19 01:54:59;;;;;;;;;;;19.90;75.30;;;19.05;88.42;96030.91;4967276;28;19967;-64
2023/08/19 01:57:27;;;;;;;;;;;19.80;75.30;;;19.03;88.40;96026.88;4951106;28;19918;-64
2023/08/19 01:59:54;;;;;;;;;;;19.80;75.10;;;19.04;88.66;96025.84;4951021;28;19977;-64
2023/08/19 02:02:23;;;;;;;;;;;19.80;75.10;;;19.03;89.16;96024.22;4955689;28;19949;-64
2023/08/19 02:04:48;;;;;;;;;;;19.80;75.60;;;19.00;89.28;96030.00;4966444;28;19914;-65
2023/08/19 02:07:14;;;;;;;;;;;19.80;76.20;;;18.94;91.58;96029.94;4953882;28;19921;-65
2023/08/19 02:09:40;;;;;;;;;;;19.70;76.40;;;18.87;91.17;96034.63;4971156;28;19976;-65
2023/08/19 02:12:06;;;;;;;;;;;19.70;76.80;;;18.82;92.57;96031.09;4966549;28;19921;-66
2023/08/19 02:14:33;;;;;;;;;;;19.60;77.00;;;18.80;92.42;96027.84;4951273;28;19914;-64
2023/08/19 02:16:59;;;;;;;;;;;19.60;77.00;;;18.81;92.72;96024.16;4936337;28;20005;-65
2023/08/19 02:19:24;;;;;;;;;;;19.60;77.10;;;18.82;91.92;96031.91;4955907;28;20397;-64
2023/08/19 02:21:50;;;;;;;;;;;19.70;77.00;;;18.83;90.60;96038.03;4936280;28;19914;-65
2023/08/19 02:24:18;;;;;;;;;;;19.60;76.30;;;18.81;91.23;96038.28;4950885;28;19925;-65
2023/08/19 02:26:44;;;;;;;;;;;19.60;76.20;;;18.81;90.37;96035.63;4971780;28;20034;-65
2023/08/19 02:29:09;;;;;;;;;;;19.60;76.20;;;18.78;90.66;96036.06;4950926;28;19910;-65
2023/08/19 02:31:36;;;;;;;;;;;19.60;76.00;;;18.74;91.42;96037.59;4973105;28;19918;-65
2023/08/19 02:34:02;;;;;;;;;;;19.50;76.40;;;18.72;91.15;96030.91;4967346;28;20118;-65
2023/08/19 02:36:27;;;;;;;;;;;19.60;76.60;;;18.72;91.45;96037.03;4950996;28;19920;-65
2023/08/19 02:38:53;;;;;;;;;;;19.50;76.30;;;18.70;90.72;96031.16;4949082;28;19920;-65
2023/08/19 02:41:19;;;;;;;;;;;19.60;76.00;;;18.69;91.81;96037.53;4964708;28;20507;-65
2023/08/19 02:43:44;;;;;;;;;;;19.60;76.10;;;18.69;90.76;96042.84;4950190;28;19926;-65
2023/08/19 02:46:10;;;;;;;;;;;19.50;76.40;;;18.69;91.97;96037.53;4966455;28;19917;-65
2023/08/19 02:48:36;;;;;;;;;;;19.50;76.40;;;18.67;92.14;96031.63;4967232;28;20297;-65
2023/08/19 02:51:01;;;;;;;;;;;19.50;76.70;;;18.64;92.06;96030.25;4953894;28;19961;-65
2023/08/19 02:53:28;;;;;;;;;;;19.50;76.90;;;18.64;92.77;96030.25;4954401;28;19910;-65
2023/08/19 02:55:54;;;;;;;;;;;19.50;76.90;;;18.63;93.26;96027.84;4968947;28;19913;-65
2023/08/19 02:58:20;;;;;;;;;;;19.50;77.00;;;18.60;93.78;96022.97;4961876;28;19918;-65
2023/08/19 03:00:49;;;;;;;;;;;19.50;77.20;;;18.51;93.96;96021.72;4969006;28;19964;-65
2023/08/19 03:03:15;;;;;;;;;;;19.40;77.70;;;18.44;95.50;96018.44;4969593;28;20096;-65
2023/08/19 03:05:40;;;;;;;;;;;19.30;78.00;;;18.42;95.38;96021.31;4968586;28;19984;-65
2023/08/19 03:08:07;;;;;;;;;;;19.30;78.30;;;18.44;96.24;96027.22;4969082;28;19920;-65
2023/08/19 03:10:36;;;;;;;;;;;19.30;78.30;;;18.46;96.55;96025.13;4954344;28;19924;-65
2023/08/19 03:13:03;;;;;;;;;;;19.40;78.30;;;18.49;95.17;96026.50;4953192;28;19922;-64
2023/08/19 03:15:31;;;;;;;;;;;19.40;78.10;;;18.46;95.32;96027.78;4972570;28;19964;-65
2023/08/19 03:17:58;;;;;;;;;;;19.40;77.80;;;18.44;95.80;96029.06;4968295;28;19926;-64
2023/08/19 03:20:23;;;;;;;;;;;19.40;77.90;;;18.43;95.82;96028.28;4956359;28;19921;-65
2023/08/19 03:22:49;;;;;;;;;;;19.40;78.00;;;18.43;95.93;96032.78;4967572;28;20361;-65
2023/08/19 03:25:15;;;;;;;;;;;19.40;78.00;;;18.45;96.45;96030.69;4952908;28;20403;-66
2023/08/19 03:27:40;;;;;;;;;;;19.40;78.10;;;18.45;96.02;96031.50;4937692;28;19949;-66
2023/08/19 03:30:06;;;;;;;;;;;19.40;78.10;;;18.44;96.42;96029.06;4952990;28;19928;-66
2023/08/19 03:32:32;;;;;;;;;;;19.40;78.10;;;18.45;96.15;96033.34;4951472;28;19918;-65
2023/08/19 03:34:58;;;;;;;;;;;19.40;78.20;;;18.45;97.16;96033.34;4936400;28;19914;-65
2023/08/19 03:37:23;;;;;;;;;;;19.40;78.20;;;18.46;94.58;96042.97;4950236;28;19913;-65
2023/08/19 03:39:50;;;;;;;;;;;19.30;77.30;;;18.41;93.28;96045.53;4954468;28;20420;-65
2023/08/19 03:42:15;;;;;;;;;;;19.20;77.30;;;18.39;93.99;96047.63;4970165;28;20262;-65
2023/08/19 03:44:41;;;;;;;;;;;19.10;77.60;;;18.30;95.29;96048.00;4934980;28;19911;-65
2023/08/19 03:47:10;;;;;;;;;;;19.10;78.10;;;18.26;96.22;96049.53;4952406;28;19914;-65
2023/08/19 03:49:35;;;;;;;;;;;19.10;78.20;;;18.23;96.68;96052.69;4955019;28;19922;-66
2023/08/19 03:52:01;;;;;;;;;;;19.10;78.20;;;18.21;95.60;96041.44;4952487;28;19968;-64
2023/08/19 03:54:27;;;;;;;;;;;19.10;78.10;;;18.15;96.08;96046.94;4951539;28;19924;-65
2023/08/19 03:56:52;;;;;;;;;;;19.00;78.40;;;18.04;97.44;96051.22;4956665;28;19933;-65
2023/08/19 03:59:18;;;;;;;;;;;18.90;78.80;;;17.99;97.89;96053.81;4966268;28;19918;-65
2023/08/19 04:01:44;;;;;;;;;;;18.90;79.00;;;18.00;98.65;96047.44;4973303;28;19913;-65
2023/08/19 04:04:09;;;;;;;;;;;18.90;79.10;;;17.99;100.00;96049.28;4946265;28;19941;-65
2023/08/19 04:06:35;;;;;;;;;;;19.00;79.30;;;18.02;99.68;96048.81;4943807;28;19925;-65
2023/08/19 04:09:01;;;;;;;;;;;19.00;79.30;;;18.04;97.15;96051.22;4962460;28;19914;-67
2023/08/19 04:11:27;;;;;;;;;;;19.00;78.80;;;18.03;96.70;96058.41;4952078;28;19910;-64
2023/08/19 04:13:52;;;;;;;;;;;18.90;78.20;;;18.00;96.38;96055.41;4947267;28;19921;-65
2023/08/19 04:16:19;;;;;;;;;;;18.90;78.30;;;17.94;97.55;96043.06;4965180;28;20523;-65
2023/08/19 04:18:45;;;;;;;;;;;18.80;78.70;;;17.87;98.79;96063.66;4953234;28;20093;-65
2023/08/19 04:21:10;;;;;;;;;;;18.80;79.20;;;17.83;99.74;96068.66;4937839;28;19925;-65
2023/08/19 04:23:36;;;;;;;;;;;18.80;79.50;;;17.81;100.00;96069.94;4974499;28;20409;-65
2023/08/19 04:26:02;;;;;;;;;;;18.80;79.60;;;17.81;100.00;96064.59;4961787;28;19962;-65
2023/08/19 04:28:28;;;;;;;;;;;18.80;79.30;;;17.79;99.90;96064.84;4974041;28;19967;-67
2023/08/19 04:31:07;;;;;;;;;;;18.80;78.90;;;17.81;99.85;96069.94;4965362;28;20305;-66
2023/08/19 04:33:33;;;;;;;;;;;18.80;78.90;;;17.82;99.98;96068.88;4954292;28;20341;-65
2023/08/19 04:35:59;;;;;;;;;;;18.80;78.80;;;17.84;99.66;96066.78;4937157;28;19909;-65
2023/08/19 04:38:25;;;;;;;;;;;18.80;79.00;;;17.81;99.80;96067.28;4967781;28;20449;-65
2023/08/19 04:40:53;;;;;;;;;;;18.80;79.10;;;17.75;100.00;96067.16;4953138;28;19962;-66
2023/08/19 04:43:19;;;;;;;;;;;18.80;79.50;;;17.78;100.00;96073.88;4967612;28;19959;-66
2023/08/19 04:45:44;;;;;;;;;;;18.90;79.40;;;17.83;100.00;96078.47;4936676;28;19918;-66
2023/08/19 04:48:10;;;;;;;;;;;18.90;79.30;;;17.86;100.00;96083.34;4951105;28;19910;-65
2023/08/19 04:50:36;;;;;;;;;;;18.90;79.20;;;17.89;100.00;96088.22;4969453;28;20337;-65
2023/08/19 04:53:02;;;;;;;;;;;19.00;79.20;;;17.91;100.00;96086.94;4933049;28;19918;-65
2023/08/19 04:55:27;;;;;;;;;;;19.00;79.20;;;17.94;100.00;96091.78;4938685;28;19913;-66
2023/08/19 04:57:53;;;;;;;;;;;19.10;79.10;;;17.98;100.00;96092.13;4966614;28;20401;-66
2023/08/19 05:00:19;;;;;;;;;;;19.10;79.20;;;17.99;100.00;96096.38;4952074;28;19917;-65
2023/08/19 05:02:44;;;;;;;;;;;19.10;79.10;;;17.99;100.00;96096.38;4951883;28;19918;-66
2023/08/19 05:05:10;;;;;;;;;;;19.10;79.20;;;17.97;100.00;96088.66;4947355;28;19914;-66
2023/08/19 05:07:36;;;;;;;;;;;19.10;79.70;;;17.98;100.00;96100.09;4950623;28;19917;-65
2023/08/19 05:10:01;;;;;;;;;;;19.10;79.60;;;18.04;100.00;96099.97;4966972;28;19941;-66
2023/08/19 05:12:27;;;;;;;;;;;19.20;79.30;;;18.08;100.00;96099.47;4949347;28;19918;-65
2023/08/19 05:14:53;;;;;;;;;;;19.20;79.20;;;18.12;100.00;96106.78;4952140;28;19975;-66
2023/08/19 05:17:18;;;;;;;;;;;19.30;79.10;;;18.14;100.00;96096.69;4966412;28;19921;-66
2023/08/19 05:19:44;;;;;;;;;;;19.30;78.80;;;18.17;100.00;96096.22;4984114;28;20350;-65
2023/08/19 05:22:10;;;;;;;;;;;19.30;78.50;;;18.19;100.00;96091.47;4968195;28;19914;-65
2023/08/19 05:24:36;;;;;;;;;;;19.40;78.50;;;18.26;100.00;96105.44;4954610;28;19929;-66
2023/08/19 05:27:01;;;;;;;;;;;19.50;78.80;;;18.34;100.00;96110.41;4956673;28;20292;-65
2023/08/19 05:29:27;;;;;;;;;;;19.60;78.50;;;18.42;100.00;96108.41;4950972;28;20366;-66
2023/08/19 05:31:53;;;;;;;;;;;19.70;78.10;;;18.48;100.00;96113.59;4973690;28;19921;-65
2023/08/19 05:34:18;;;;;;;;;;;19.80;78.00;;;18.53;100.00;96115.53;4949757;28;19925;-65
2023/08/19 05:36:44;;;;;;;;;;;19.80;77.80;;;18.59;100.00;96115.41;4968915;28;20265;-65
2023/08/19 05:39:10;;;;;;;;;;;20.00;77.70;;;18.67;100.00;96114.22;4964897;28;19916;-66
2023/08/19 05:41:36;;;;;;;;;;;20.00;77.60;;;18.76;100.00;96117.31;4943775;28;19914;-65
2023/08/19 05:44:01;;;;;;;;;;;20.10;77.70;;;18.84;100.00;96114.28;4932940;28;19929;-66
2023/08/19 05:46:27;;;;;;;;;;;20.30;78.00;;;18.96;100.00;96123.00;4951676;28;19917;-66
2023/08/19 05:48:53;;;;;;;;;;;20.40;77.60;;;19.06;100.00;96112.50;4967798;28;19914;-65
2023/08/19 05:51:19;;;;;;;;;;;20.50;77.40;;;19.17;100.00;96118.81;4934863;28;20001;-66
2023/08/19 05:53:44;;;;;;;;;;;20.60;76.90;;;19.27;100.00;96119.78;4951496;28;20355;-66
2023/08/19 05:56:10;;;;;;;;;;;20.80;76.60;;;19.39;99.37;96117.03;4967303;28;19910;-65
2023/08/19 05:58:38;;;;;;;;;;;20.90;75.90;;;19.50;99.49;96118.00;4954437;28;19980;-65
2023/08/19 06:01:03;;;;;;;;;;;21.10;75.70;;;19.62;98.66;96109.91;4964472;28;19914;-66
2023/08/19 06:03:29;;;;;;;;;;;21.10;75.20;;;19.76;97.24;96116.53;4951324;28;20388;-67
2023/08/19 06:05:55;;;;;;;;;;;21.30;74.30;;;19.85;94.51;96115.84;4948117;28;19920;-65
2023/08/19 06:08:20;;;;;;;;;;;21.40;72.80;;;19.98;94.54;96130.72;4982440;28;19910;-65
2023/08/19 06:10:46;;;;;;;;;;;21.70;73.00;;;20.09;94.99;96127.09;4966365;28;19988;-66
2023/08/19 06:13:12;;;;;;;;;;;21.80;72.80;;;20.21;93.27;96126.19;4953662;28;19925;-65
2023/08/19 06:15:38;;;;;;;;;;;21.90;71.40;;;20.32;91.52;96130.56;4966412;28;20211;-65
2023/08/19 06:18:04;;;;;;;;;;;22.10;70.60;;;20.44;91.35;96123.28;4955633;28;19924;-66
2023/08/19 06:20:29;;;;;;;;;;;22.20;70.00;;;20.55;90.42;96138.34;4965843;28;19914;-65
2023/08/19 06:22:55;;;;;;;;;;;22.30;69.80;;;20.66;89.57;96137.41;4963429;28;19921;-65
2023/08/19 06:25:21;;;;;;;;;;;22.40;69.30;;;20.76;87.68;96139.38;4967491;28;19936;-65
2023/08/19 06:27:47;;;;;;;;;;;22.50;68.40;;;20.86;87.61;96136.00;4968125;28;19973;-65
2023/08/19 06:30:13;;;;;;;;;;;22.60;68.50;;;20.96;86.80;96138.78;4966621;28;19914;-65
2023/08/19 06:32:38;;;;;;;;;;;22.70;67.80;;;21.05;86.38;96145.28;4934435;28;20437;-65
2023/08/19 06:35:05;;;;;;;;;;;22.70;67.70;;;21.12;85.19;96145.06;4933783;28;19936;-65
2023/08/19 06:37:31;;;;;;;;;;;22.80;67.00;;;21.21;85.73;96146.22;4964793;28;19960;-65
2023/08/19 06:39:57;;;;;;;;;;;22.90;67.30;;;21.28;84.65;96152.22;4950812;28;19941;-64
2023/08/19 06:42:23;;;;;;;;;;;23.00;66.70;;;21.35;85.27;96153.59;4944060;28;19913;-65
2023/08/19 06:44:49;;;;;;;;;;;23.00;67.00;;;21.44;87.25;96153.13;4967050;28;20318;-64
2023/08/19 06:47:20;;;;;;;;;;;23.10;67.90;;;21.49;87.60;96142.44;4934353;28;19914;-64
2023/08/19 06:49:46;;;;;;;;;;;23.10;68.40;;;21.57;87.95;96156.19;4952526;28;20012;-67
2023/08/19 06:52:12;;;;;;;;;;;23.20;68.30;;;21.66;87.44;96159.16;4961856;28;19921;-68
2023/08/19 06:54:38;;;;;;;;;;;23.30;68.20;;;21.75;87.80;96159.50;4951367;28;19918;-68
2023/08/19 06:57:08;;;;;;;;;;;23.40;68.20;;;21.83;87.25;96159.81;4958753;28;20460;-68
2023/08/19 06:59:36;;;;;;;;;;;23.50;68.10;;;21.92;87.34;96152.91;4967232;28;19917;-68
2023/08/19 07:02:02;;;;;;;;;;;23.60;68.00;;;22.00;84.70;96157.00;4945889;28;19916;-66
2023/08/19 07:04:30;;;;;;;;;;;23.60;66.50;;;22.08;83.98;96158.38;4968945;28;20006;-66
2023/08/19 07:06:57;;;;;;;;;;;23.70;66.20;;;22.15;83.70;96154.41;4951280;28;19910;-68
2023/08/19 07:09:23;;;;;;;;;;;23.80;66.00;;;22.23;81.43;96150.44;4936691;28;20061;-67
2023/08/19 07:11:51;;;;;;;;;;;23.90;64.40;;;22.33;82.36;96155.03;4931697;28;19921;-65
2023/08/19 07:14:17;;;;;;;;;;;24.00;65.10;;;22.44;82.98;96157.50;4934253;28;20469;-66
2023/08/19 07:16:42;;;;;;;;;;;24.20;65.00;;;22.55;83.66;96163.69;4952211;28;20012;-67
2023/08/19 07:19:10;;;;;;;;;;;24.40;65.70;;;22.67;83.98;96164.28;4950503;28;19914;-68
2023/08/19 07:21:36;;;;;;;;;;;24.50;65.60;;;22.79;84.10;96169.38;4947223;28;19920;-68
2023/08/19 07:24:02;;;;;;;;;;;24.60;65.40;;;22.95;85.65;96163.03;4940296;28;19914;-66
2023/08/19 07:26:27;;;;;;;;;;;24.90;66.00;;;23.11;83.78;96162.00;4943505;28;19961;-66
2023/08/19 07:28:54;;;;;;;;;;;25.10;64.60;;;23.29;83.67;96167.88;4965272;28;20373;-68
2023/08/19 07:31:22;;;;;;;;;;;25.30;64.30;;;23.50;83.70;96170.31;4965705;28;19921;-66
2023/08/19 07:33:48;;;;;;;;;;;25.60;63.80;;;23.72;82.75;96172.75;4966575;28;19918;-66
2023/08/19 07:36:13;;;;;;;;;;;26.00;63.10;;;23.95;79.42;96170.56;4948364;28;19911;-66
2023/08/19 07:38:39;;;;;;;;;;;26.20;60.70;;;24.18;79.12;96169.97;4967441;28;20538;-66
2023/08/19 07:41:05;;;;;;;;;;;26.50;60.20;;;24.41;75.00;96158.63;4963676;28;19922;-67
2023/08/19 07:43:30;;;;;;;;;;;26.80;57.40;;;24.65;73.14;96166.06;4966000;28;19914;-67
2023/08/19 07:45:56;;;;;;;;;;;27.20;55.90;;;24.90;72.44;96165.94;4952436;28;19914;-67
2023/08/19 07:48:22;;;;;;;;;;;27.40;55.10;;;25.14;70.75;96165.28;4950272;28;19910;-69
2023/08/19 07:50:47;;;;;;;;;;;27.60;54.00;;;25.38;70.41;96160.00;4940136;28;19914;-66
2023/08/19 07:53:13;;;;;;;;;;;27.90;53.40;;;25.62;67.80;96156.28;4960071;28;19918;-69
2023/08/19 07:55:39;;;;;;;;;;;28.10;51.40;;;25.86;67.67;96150.19;4968079;28;19914;-66
2023/08/19 07:58:04;;;;;;;;;;;28.40;51.10;;;26.07;66.56;96156.97;4946160;28;19910;-66
2023/08/19 08:00:30;;;;;;;;;;;28.60;50.50;;;26.32;64.94;96152.38;4950932;28;19918;-66
2023/08/19 08:02:56;;;;;;;;;;;28.80;49.10;;;26.51;65.88;96164.06;4962523;28;19910;-67
2023/08/19 08:05:21;;;;;;;;;;;29.10;49.50;;;26.72;66.06;96168.09;4968376;28;19922;-69
2023/08/19 08:07:47;;;;;;;;;;;29.30;50.30;;;26.97;67.52;96172.34;4962723;28;19993;-67
2023/08/19 08:10:13;;;;;;;;;;;29.60;50.80;;;27.20;66.43;96165.31;4958136;28;19933;-66
2023/08/19 08:12:38;;;;;;;;;;;29.80;50.10;;;27.42;66.69;96165.50;4967248;28;20349;-66
2023/08/19 08:15:04;;;;;;;;;;;30.10;50.30;;;27.67;65.00;96160.81;4942672;28;19925;-66
2023/08/19 08:17:30;;;;;;;;;;;30.40;49.00;;;27.91;63.27;96142.53;4959266;28;19918;-66
2023/08/19 08:19:57;;;;;;;;;;;30.70;46.90;;;28.17;62.60;96145.56;4970347;28;19914;-66
2023/08/19 08:22:23;;;;;;;;;;;31.00;46.80;;;28.43;62.80;96153.19;4944300;28;20413;-67
2023/08/19 08:24:49;;;;;;;;;;;31.20;47.00;;;28.66;62.41;96150.28;4934991;28;19924;-67
2023/08/19 08:27:15;;;;;;;;;;;31.50;46.70;;;28.90;61.64;96143.84;4962705;28;19953;-67
2023/08/19 08:29:41;;;;;;;;;;;31.70;45.70;;;29.15;60.49;96140.56;4965865;28;19980;-66
2023/08/19 08:32:08;;;;;;;;;;;32.00;44.90;;;29.40;58.70;96135.63;4968430;28;20013;-66
2023/08/19 08:34:34;;;;;;;;;;;32.30;43.20;;;29.64;56.86;96125.31;4950392;28;19922;-68
2023/08/19 08:36:59;;;;;;;;;;;32.30;42.40;;;29.80;56.90;96123.81;4952641;28;20385;-70
2023/08/19 08:39:25;;;;;;;;;;;32.60;42.20;;;30.01;54.85;96112.41;4961867;28;19918;-66
2023/08/19 08:41:51;;;;;;;;;;;32.90;41.00;;;30.24;53.33;96105.03;4948049;28;19914;-67
2023/08/19 08:44:17;;;;;;;;;;;33.20;39.80;;;30.47;55.82;96122.81;4964714;28;19913;-67
2023/08/19 08:46:42;;;;;;;;;;;33.50;41.40;;;30.71;56.07;96119.72;4951732;28;19914;-68
2023/08/19 08:49:08;;;;;;;;;;;33.80;41.00;;;30.96;54.97;96121.66;4948442;28;19914;-65
2023/08/19 08:51:34;;;;;;;;;;;34.10;40.60;;;31.19;52.70;96108.72;4951698;28;19914;-64
2023/08/19 08:54:00;;;;;;;;;;;34.30;38.60;;;31.39;50.32;96090.97;4952196;28;19914;-64
2023/08/19 08:56:25;;;;;;;;;;;34.30;36.90;;;31.56;50.89;96112.69;4952074;28;19994;-67
2023/08/19 08:58:51;;;;;;;;;;;34.60;37.50;;;31.81;49.38;96085.78;4965041;28;19921;-66
2023/08/19 09:01:17;;;;;;;;;;;34.90;36.10;;;32.08;49.10;96096.22;4972754;28;19925;-67
2023/08/19 09:03:43;;;;;;;;;;;35.30;36.00;;;32.35;50.35;96107.81;4961355;28;19936;-67
2023/08/19 09:06:11;;;;;;;;;;;35.60;36.70;;;32.64;49.06;96096.94;4936442;28;20028;-70
2023/08/19 09:08:50;;;;;;;;;;;36.00;35.50;;;32.92;46.73;96080.09;4960170;28;20098;-67
2023/08/19 09:11:19;;;;;;;;;;;36.30;35.10;;;33.15;46.46;96078.63;4968416;28;19928;-68
2023/08/19 09:13:45;;;;;;;;;;;36.50;33.70;;;33.40;47.64;96102.16;4952072;28;19918;-67
2023/08/19 09:16:11;;;;;;;;;;;36.80;34.30;;;33.63;46.90;96099.03;4968304;28;19924;-67
2023/08/19 09:18:38;;;;;;;;;;;37.10;33.90;;;33.79;46.95;96103.53;4949844;28;19914;-67
2023/08/19 09:21:06;;;;;;;;;;;37.20;34.00;;;34.02;45.55;96089.50;4965029;28;20056;-67
2023/08/19 09:23:31;;;;;;;;;;;37.50;33.70;;;34.27;46.89;96091.09;4960504;28;19946;-67
2023/08/19 09:26:00;;;;;;;;;;;37.80;33.80;;;34.50;45.68;96082.47;4948638;28;19910;-67
2023/08/19 09:28:26;;;;;;;;;;;37.90;32.80;;;34.67;45.98;96091.22;4962432;28;19922;-67
2023/08/19 09:30:52;;;;;;;;;;;38.20;32.80;;;34.86;44.26;96084.38;4966636;28;19914;-66
2023/08/19 09:33:19;;;;;;;;;;;38.30;31.30;;;35.03;43.24;96075.09;4939715;28;19918;-66
2023/08/19 09:35:46;;;;;;;;;;;38.50;31.00;;;35.27;43.51;96078.50;4968298;28;20622;-67
2023/08/19 09:38:22;;;;;;;;;;;39.00;31.60;;;35.49;42.49;96079.13;4934585;28;19976;-67
2023/08/19 09:40:59;;;;;;;;;;;39.10;32.00;;;35.71;44.01;96081.28;4965902;28;19999;-67
2023/08/19 09:43:25;;;;;;;;;;;39.40;31.50;;;35.87;42.25;96060.25;4948771;28;19918;-66
2023/08/19 09:45:55;;;;;;;;;;;39.70;29.80;;;36.12;43.77;96090.19;4965525;28;20338;-70
2023/08/19 09:48:21;;;;;;;;;;;39.80;30.30;;;36.25;40.17;96061.56;4972709;28;19918;-66
2023/08/19 09:50:47;;;;;;;;;;;40.00;28.80;;;36.45;39.76;96060.50;4934782;28;19909;-66
2023/08/19 09:53:14;;;;;;;;;;;40.30;28.40;;;36.65;40.22;96063.25;4965678;28;19918;-66
2023/08/19 09:55:44;;;;;;;;;;;40.50;28.40;;;36.86;40.55;96073.91;4965433;28;20008;-66
2023/08/19 09:58:09;;;;;;;;;;;41.00;28.70;;;37.01;39.22;96060.16;4935457;28;19965;-66
2023/08/19 10:00:35;;;;;;;;;;;41.00;27.20;;;37.18;37.36;96047.16;4948711;28;19969;-67
2023/08/19 10:03:01;;;;;;;;;;;41.40;26.30;;;37.28;37.89;96052.88;4946495;28;19918;-67
2023/08/19 10:05:26;;;;;;;;;;;41.60;26.70;;;37.42;38.01;96060.59;4950753;28;19914;-66
2023/08/19 10:08:03;;;;;;;;;;;41.80;26.80;;;37.72;37.95;96065.47;4967380;28;20167;-66
2023/08/19 10:10:30;;;;;;;;;;;42.40;26.60;;;37.93;36.70;96039.19;4951159;28;19914;-66
2023/08/19 10:12:56;;;;;;;;;;;42.90;25.40;;;38.04;37.11;96058.59;4965530;28;19920;-66
2023/08/19 10:15:22;;;;;;;;;;;43.20;25.20;;;38.26;37.74;96062.50;4951383;28;20562;-66
2023/08/19 10:17:50;;;;;;;;;;;43.50;25.40;;;38.44;36.38;96043.53;4949698;28;19971;-68
2023/08/19 10:20:17;;;;;;;;;;;43.80;24.70;;;38.73;36.36;96042.81;4949532;28;19918;-67
2023/08/19 10:22:45;;;;;;;;;;;44.40;24.80;;;38.92;35.80;96045.38;4966489;28;19918;-67
2023/08/19 10:25:11;;;;;;;;;;;44.70;23.80;;;39.20;35.07;96045.00;4974181;28;20374;-66
2023/08/19 10:27:37;;;;;;;;;;;45.00;24.00;;;39.43;35.33;96044.84;4950688;28;20392;-66
2023/08/19 10:30:25;;;;;;;;;;;45.30;23.20;;;39.70;33.92;96039.25;4974777;28;19914;-66
2023/08/19 10:32:51;;;;;;;;;;;46.00;22.40;;;39.77;32.43;96012.53;4987325;28;19917;-67
2023/08/19 10:35:17;;;;;;;;;;;45.90;23.00;;;39.98;33.95;96039.50;4971685;28;19921;-66
2023/08/19 10:37:43;;;;;;;;;;;46.50;22.90;;;40.24;34.70;96049.56;4950401;28;20373;-67
2023/08/19 10:40:13;;;;;;;;;;;46.90;22.40;;;40.48;33.12;96022.56;4961765;28;19929;-67
2023/08/19 10:42:39;;;;;;;;;;;47.20;21.90;;;40.66;34.26;96046.31;4964640;28;20113;-66
2023/08/19 10:45:15;;;;;;;;;;;47.50;20.90;;;40.80;32.77;96031.03;4950990;28;20000;-71
2023/08/19 10:47:41;;;;;;;;;;;47.20;20.80;;;40.86;32.40;96027.53;4950732;28;19953;-71
2023/08/19 10:50:07;;;;;;;;;;;47.40;20.70;;;41.02;32.76;96027.22;4966984;28;19972;-67
2023/08/19 10:52:33;;;;;;;;;;;47.70;20.50;;;41.24;32.12;96026.16;4968040;28;19914;-66
2023/08/19 10:54:59;;;;;;;;;;;47.80;20.50;;;41.25;32.30;96033.25;4943552;28;20397;-72
2023/08/19 10:57:26;;;;;;;;;;;47.90;20.40;;;41.50;31.75;96032.50;4941280;28;19992;-71
2023/08/19 10:59:56;;;;;;;;;;;48.30;19.60;;;41.67;30.75;96026.25;4950469;28;19977;-72
2023/08/19 11:02:22;;;;;;;;;;;48.40;20.10;;;41.83;32.08;96034.16;4962195;28;19914;-71
2023/08/19 11:04:48;;;;;;;;;;;48.60;20.00;;;42.04;31.58;96034.16;4948848;28;20289;-71
2023/08/19 11:07:14;;;;;;;;;;;48.60;19.70;;;42.26;31.15;96023.13;4935906;28;19914;-67
2023/08/19 11:09:41;;;;;;;;;;;48.90;19.50;;;42.36;30.55;96022.34;4932900;28;20274;-67
2023/08/19 11:12:07;;;;;;;;;;;48.80;19.10;;;42.50;30.70;96017.56;4968925;28;19925;-66
2023/08/19 11:14:32;;;;;;;;;;;49.00;19.10;;;42.61;30.20;96017.56;4965872;28;19918;-67